Time;durP1;ratioP1;P1;durP2;ratioP2;P2;SDS_P1;SDS_P2;PMS_P1;PMS_P2;Temp;Humidity;BMP_temperature;BMP_pressure;BME280_temperature;BME280_humidity;BME280_pressure;Samples;Min_cycle;Max_cycle;Signal;HPM_P1;HPM_P2
2021/12/18 00:01:45;;;;;;;0.40;0.30;;;;;;;6.53;100.00;103203.19;5035233;28;20819;-70
2021/12/18 00:04:11;;;;;;;0.40;0.30;;;;;;;6.56;100.00;103207.34;5035295;28;20447;-70
2021/12/18 00:06:38;;;;;;;0.40;0.30;;;;;;;6.51;100.00;103207.13;5035284;28;20443;-70
2021/12/18 00:09:05;;;;;;;0.40;0.30;;;;;;;6.53;100.00;103207.75;5035214;28;20446;-70
2021/12/18 00:11:33;;;;;;;0.40;0.30;;;;;;;6.55;100.00;103201.13;5035105;28;20445;-70
2021/12/18 00:14:00;;;;;;;12.00;3.60;;;;;;;6.50;100.00;103200.06;5035108;28;20450;-70
2021/12/18 00:16:26;;;;;;;0.40;0.20;;;;;;;6.53;100.00;103196.97;5035156;28;20447;-70
2021/12/18 00:18:55;;;;;;;0.40;0.30;;;;;;;6.57;100.00;103203.59;5035026;28;20504;-70
2021/12/18 00:21:21;;;;;;;0.40;0.30;;;;;;;6.60;100.00;103207.72;5034570;28;20487;-70
2021/12/18 00:23:48;;;;;;;0.40;0.30;;;;;;;6.56;100.00;103213.53;5034857;28;20467;-70
2021/12/18 00:26:15;;;;;;;0.40;0.30;;;;;;;6.55;100.00;103202.97;5034612;28;20963;-69
2021/12/18 00:28:43;;;;;;;0.40;0.30;;;;;;;6.62;100.00;103201.09;5034871;28;20454;-70
2021/12/18 00:31:09;;;;;;;0.60;0.53;;;;;;;6.65;100.00;103197.19;5034765;28;20446;-70
2021/12/18 00:33:36;;;;;;;0.40;0.30;;;;;;;6.67;100.00;103187.81;5034892;28;20462;-70
2021/12/18 00:36:02;;;;;;;0.40;0.20;;;;;;;6.61;100.00;103198.63;5034337;28;20797;-70
2021/12/18 00:38:30;;;;;;;0.40;0.30;;;;;;;6.64;100.00;103192.81;5034684;28;20454;-70
2021/12/18 00:41:12;;;;;;;0.40;0.30;;;;;;;6.69;100.00;103180.38;5034551;28;20462;-70
2021/12/18 00:44:01;;;;;;;0.40;0.30;;;;;;;6.66;100.00;103188.06;5035517;28;20911;-70
2021/12/18 00:46:30;;;;;;;0.40;0.30;;;;;;;6.65;100.00;103189.91;5034194;28;20531;-69
2021/12/18 00:48:56;;;;;;;0.40;0.30;;;;;;;6.68;100.00;103194.88;5034480;28;20431;-70
2021/12/18 00:51:23;;;;;;;0.40;0.27;;;;;;;6.70;100.00;103191.97;5034419;28;20443;-70
2021/12/18 00:53:49;;;;;;;0.40;0.30;;;;;;;6.65;100.00;103195.31;5034312;28;20455;-70
2021/12/18 00:56:16;;;;;;;0.40;0.30;;;;;;;6.66;100.00;103190.75;5034395;28;20443;-70
2021/12/18 00:58:43;;;;;;;0.40;0.30;;;;;;;6.61;100.00;103182.47;5034302;28;20439;-70
2021/12/18 01:01:10;;;;;;;0.40;0.30;;;;;;;6.70;100.00;103192.81;5034153;28;20451;-70
2021/12/18 01:03:40;;;;;;;0.40;0.30;;;;;;;6.68;100.00;103191.34;5034117;28;20459;-70
2021/12/18 01:06:07;;;;;;;0.40;0.30;;;;;;;6.64;100.00;103201.75;5034104;28;20780;-70
2021/12/18 01:08:34;;;;;;;0.40;0.30;;;;;;;6.68;100.00;103204.81;5034137;28;20789;-70
2021/12/18 01:11:21;;;;;;;0.40;0.30;;;;;;;6.73;100.00;103207.69;5034057;28;20439;-70
2021/12/18 01:14:01;;;;;;;0.40;0.30;;;;;;;6.74;100.00;103207.50;5033971;28;20549;-70
2021/12/18 01:16:38;;;;;;;0.40;0.30;;;;;;;6.72;100.00;103201.50;5034017;28;20435;-70
2021/12/18 01:24:34;;;;;;;0.40;0.30;;;;;;;6.67;100.00;103225.53;5033947;28;20779;-70
2021/12/18 01:27:01;;;;;;;1.03;1.03;;;;;;;6.66;100.00;103221.19;5033424;28;20468;-70
2021/12/18 01:29:27;;;;;;;0.40;0.30;;;;;;;6.71;100.00;103220.56;5033694;28;20439;-70
2021/12/18 01:31:53;;;;;;;0.40;0.30;;;;;;;6.77;100.00;103225.09;5032976;28;20459;-71
2021/12/18 01:34:21;;;;;;;0.40;0.20;;;;;;;6.79;100.00;103223.03;5033711;28;20527;-70
2021/12/18 01:36:48;;;;;;;0.40;0.30;;;;;;;6.68;100.00;103216.41;5033678;28;20860;-70
2021/12/18 01:39:14;;;;;;;0.40;0.30;;;;;;;6.64;100.00;103217.91;5033599;28;20443;-70
2021/12/18 01:41:57;;;;;;;0.40;0.30;;;;;;;6.67;100.00;103213.94;5033362;28;20483;-71
2021/12/18 01:44:51;;;;;;;0.40;0.27;;;;;;;6.69;100.00;103210.00;5033539;28;20522;-70
2021/12/18 01:52:53;;;;;;;0.40;0.30;;;;;;;6.68;100.00;103192.16;5033076;28;20968;-70
2021/12/18 01:55:20;;;;;;;0.40;0.30;;;;;;;6.61;100.00;103182.47;5033125;28;20984;-70
2021/12/18 01:57:46;;;;;;;0.40;0.30;;;;;;;6.58;100.00;103176.44;5033065;28;20447;-70
2021/12/18 02:00:17;;;;;;;0.40;0.30;;;;;;;6.52;100.00;103171.09;5033321;28;20434;-70
2021/12/18 02:02:44;;;;;;;0.40;0.30;;;;;;;6.47;100.00;103171.72;5033192;28;20486;-70
2021/12/18 02:05:12;;;;;;;0.40;0.30;;;;;;;6.51;100.00;103167.56;5033263;28;20450;-70
2021/12/18 02:07:40;;;;;;;0.40;0.30;;;;;;;6.51;100.00;103174.84;5033282;28;20447;-70
2021/12/18 02:10:10;;;;;;;0.40;0.30;;;;;;;6.51;100.00;103158.69;5033260;28;20438;-70
2021/12/18 02:12:46;;;;;;;0.40;0.30;;;;;;;6.45;100.00;103163.00;5033108;28;20463;-70
2021/12/18 02:20:45;;;;;;;0.40;0.30;;;;;;;6.38;100.00;103161.38;5033011;28;20419;-70
2021/12/18 02:23:12;;;;;;;0.40;0.30;;;;;;;6.43;100.00;103165.09;5033019;28;20494;-70
2021/12/18 02:25:39;;;;;;;0.40;0.30;;;;;;;6.47;100.00;103154.75;5033115;28;20447;-70
2021/12/18 02:28:15;;;;;;;0.40;0.30;;;;;;;6.51;100.00;103155.97;5032967;28;20451;-70
2021/12/18 02:30:42;;;;;;;0.40;0.30;;;;;;;6.47;100.00;103162.81;5032823;28;20921;-70
2021/12/18 02:33:08;;;;;;;0.40;0.30;;;;;;;6.47;100.00;103165.50;5032978;28;20463;-70
2021/12/18 02:35:43;;;;;;;0.40;0.30;;;;;;;6.46;100.00;103170.06;5032722;28;20450;-71
2021/12/18 02:38:16;;;;;;;0.40;0.20;;;;;;;6.46;100.00;103159.31;5032981;28;20438;-71
2021/12/18 02:41:03;;;;;;;0.40;0.30;;;;;;;6.48;100.00;103168.00;5032727;28;20806;-70
2021/12/18 02:43:32;;;;;;;0.40;0.30;;;;;;;6.47;100.00;103165.50;5034337;28;20497;-70
2021/12/18 02:46:00;;;;;;;0.40;0.30;;;;;;;6.47;100.00;103165.50;5036816;28;20447;-70
2021/12/18 02:48:28;;;;;;;0.40;0.30;;;;;;;6.49;100.00;103164.25;5036773;28;20443;-70
2021/12/18 02:50:55;;;;;;;0.40;0.30;;;;;;;6.50;100.00;103165.06;5036728;28;20439;-70
2021/12/18 02:53:24;;;;;;;0.40;0.30;;;;;;;6.53;100.00;103160.09;5036318;28;20995;-70
2021/12/18 02:55:55;;;;;;;0.40;0.30;;;;;;;6.56;100.00;103158.88;5036648;28;20439;-70
2021/12/18 02:58:22;;;;;;;0.40;0.27;;;;;;;6.52;100.00;103157.63;5036644;28;20427;-70
2021/12/18 03:00:49;;;;;;;0.40;0.30;;;;;;;6.54;100.00;103160.94;5036226;28;20442;-70
2021/12/18 03:03:16;;;;;;;0.40;0.30;;;;;;;6.56;100.00;103158.88;5036324;28;20514;-70
2021/12/18 03:05:51;;;;;;;0.40;0.30;;;;;;;6.52;100.00;103152.25;5036435;28;20474;-70
2021/12/18 03:08:32;;;;;;;0.40;0.30;;;;;;;6.55;100.00;103157.19;5036305;28;20486;-70
2021/12/18 03:24:53;;;;;;;0.40;0.30;;;;;;;6.52;100.00;103147.69;5035968;28;20411;-69
2021/12/18 03:27:22;;;;;;;0.40;0.30;;;;;;;6.54;100.00;103145.59;5036069;28;20467;-68
2021/12/18 03:29:49;;;;;;;0.40;0.30;;;;;;;6.47;100.00;103138.59;5036147;28;20435;-69
2021/12/18 03:32:15;;;;;;;0.40;0.30;;;;;;;6.39;100.00;103133.44;5035880;28;20459;-71
2021/12/18 03:34:42;;;;;;;0.40;0.30;;;;;;;6.35;100.00;103129.50;5035957;28;20442;-72
2021/12/18 03:37:09;;;;;;;0.40;0.27;;;;;;;6.42;100.00;103131.16;5035897;28;20511;-72
2021/12/18 03:39:36;;;;;;;0.40;0.30;;;;;;;6.44;100.00;103130.94;5035783;28;20438;-72
2021/12/18 03:42:04;;;;;;;0.40;0.30;;;;;;;6.42;100.00;103128.44;5035408;28;20544;-71
2021/12/18 03:44:32;;;;;;;0.40;0.30;;;;;;;6.43;100.00;103130.09;5035767;28;20493;-71
2021/12/18 03:46:59;;;;;;;0.40;0.30;;;;;;;6.43;100.00;103131.97;5035704;28;20853;-72
2021/12/18 03:49:26;;;;;;;0.40;0.30;;;;;;;6.44;100.00;103117.47;5035629;28;20447;-72
2021/12/18 03:51:52;;;;;;;0.40;0.30;;;;;;;6.47;100.00;103112.50;5035547;28;20825;-72
2021/12/18 03:54:19;;;;;;;0.40;0.30;;;;;;;6.47;100.00;103117.06;5034898;28;20448;-72
2021/12/18 03:56:45;;;;;;;0.40;0.30;;;;;;;6.43;100.00;103107.75;5035486;28;20435;-71
2021/12/18 03:59:12;;;;;;;0.40;0.30;;;;;;;6.39;100.00;103123.47;5035166;28;20447;-72
2021/12/18 04:01:40;;;;;;;0.40;0.20;;;;;;;6.45;100.00;103119.13;5035381;28;20443;-72
2021/12/18 04:04:07;;;;;;;0.40;0.30;;;;;;;6.48;100.00;103118.69;5035256;28;20487;-72
2021/12/18 04:06:37;;;;;;;0.40;0.20;;;;;;;6.49;100.00;103121.16;5035279;28;20454;-72
2021/12/18 04:09:03;;;;;;;0.40;0.30;;;;;;;6.48;100.00;103132.97;5035239;28;20493;-71
2021/12/18 04:11:30;;;;;;;0.40;0.30;;;;;;;6.45;100.00;103128.00;5035162;28;20447;-72
2021/12/18 04:13:57;;;;;;;0.40;0.30;;;;;;;6.48;100.00;103132.16;5035150;28;20466;-72
2021/12/18 04:16:23;;;;;;;1.50;1.40;;;;;;;6.47;100.00;103134.03;5035146;28;20439;-71
2021/12/18 04:18:51;;;;;;;0.40;0.30;;;;;;;6.47;100.00;103125.13;5035153;28;20443;-72
2021/12/18 04:21:18;;;;;;;0.40;0.30;;;;;;;6.48;100.00;103124.91;5034725;28;20967;-72
2021/12/18 04:23:45;;;;;;;0.40;0.20;;;;;;;6.51;100.00;103129.06;5034810;28;20537;-72
2021/12/18 04:26:11;;;;;;;0.40;0.30;;;;;;;6.51;100.00;103123.69;5034930;28;20442;-72
2021/12/18 04:28:38;;;;;;;0.40;0.30;;;;;;;6.47;100.00;103128.66;5034904;28;20447;-72
2021/12/18 04:31:04;;;;;;;0.40;0.30;;;;;;;6.53;100.00;103126.97;5034777;28;20447;-72
2021/12/18 04:33:31;;;;;;;0.50;0.40;;;;;;;6.49;100.00;103114.97;5034735;28;20467;-72
2021/12/18 04:35:58;;;;;;;0.40;0.30;;;;;;;6.52;100.00;103112.69;5034771;28;20450;-72
2021/12/18 04:38:25;;;;;;;0.40;0.30;;;;;;;6.57;100.00;103114.75;5034732;28;20509;-72
2021/12/18 04:40:52;;;;;;;0.40;0.30;;;;;;;6.60;100.00;103121.56;5034678;28;20447;-71
2021/12/18 04:43:18;;;;;;;0.40;0.30;;;;;;;6.57;100.00;103126.34;5034197;28;20589;-72
2021/12/18 04:45:45;;;;;;;0.40;0.30;;;;;;;6.49;100.00;103126.56;5034608;28;20447;-72
2021/12/18 04:48:11;;;;;;;0.40;0.30;;;;;;;6.54;100.00;103129.44;5034535;28;20497;-72
2021/12/18 04:50:37;;;;;;;0.40;0.20;;;;;;;6.52;100.00;103130.72;5034478;28;20443;-72
2021/12/18 04:53:05;;;;;;;0.40;0.30;;;;;;;6.51;100.00;103119.13;5034355;28;20459;-72
2021/12/18 04:55:32;;;;;;;0.40;0.30;;;;;;;6.54;100.00;103115.16;5034433;28;20439;-72
2021/12/18 04:57:58;;;;;;;0.40;0.30;;;;;;;6.62;100.00;103116.81;5034443;28;20447;-72
2021/12/18 05:00:30;;;;;;;0.40;0.30;;;;;;;6.57;100.00;103125.50;5034334;28;20447;-70
2021/12/18 05:02:59;;;;;;;0.40;0.30;;;;;;;6.59;100.00;103118.03;5034175;28;20487;-70
2021/12/18 05:05:26;;;;;;;0.40;0.30;;;;;;;6.57;100.00;103120.13;5034171;28;20817;-70
2021/12/18 05:07:53;;;;;;;0.40;0.30;;;;;;;6.58;100.00;103114.50;5033203;28;20447;-70
2021/12/18 05:10:20;;;;;;;0.40;0.30;;;;;;;6.61;100.00;103113.28;5034173;28;20855;-70
2021/12/18 05:12:47;;;;;;;0.40;0.30;;;;;;;6.57;100.00;103115.56;5034002;28;20459;-70
2021/12/18 05:15:13;;;;;;;0.40;0.30;;;;;;;6.64;100.00;103115.56;5034024;28;20943;-71
2021/12/18 05:17:40;;;;;;;0.50;0.30;;;;;;;6.65;100.00;103108.31;5033952;28;20489;-71
2021/12/18 05:20:08;;;;;;;0.40;0.30;;;;;;;6.66;100.00;103115.34;5033937;28;20442;-71
2021/12/18 05:22:34;;;;;;;0.40;0.30;;;;;;;6.65;100.00;103114.50;5033781;28;20459;-71
2021/12/18 05:25:01;;;;;;;1.93;1.83;;;;;;;6.63;100.00;103113.88;5033843;28;20451;-71
2021/12/18 05:27:29;;;;;;;0.40;0.30;;;;;;;6.60;100.00;103113.47;5033521;28;20925;-71
2021/12/18 05:29:55;;;;;;;0.40;0.30;;;;;;;6.60;100.00;103116.16;5033753;28;20446;-71
2021/12/18 05:32:21;;;;;;;0.40;0.30;;;;;;;6.62;100.00;103114.94;5033684;28;20842;-71
2021/12/18 05:34:48;;;;;;;0.40;0.30;;;;;;;6.57;100.00;103112.03;5033686;28;20447;-71
2021/12/18 05:37:19;;;;;;;0.40;0.20;;;;;;;6.58;100.00;103108.31;5033696;28;20455;-71
2021/12/18 05:39:46;;;;;;;0.40;0.30;;;;;;;6.51;100.00;103107.53;5033657;28;20434;-71
2021/12/18 05:42:13;;;;;;;0.40;0.30;;;;;;;6.53;100.00;103106.25;5033064;28;20886;-71
2021/12/18 05:44:41;;;;;;;0.40;0.30;;;;;;;6.56;100.00;103113.09;5033564;28;20470;-71
2021/12/18 05:47:08;;;;;;;0.40;0.20;;;;;;;6.57;100.00;103112.03;5033473;28;20450;-71
2021/12/18 05:49:34;;;;;;;0.40;0.30;;;;;;;6.57;100.00;103122.81;5033515;28;20462;-71
2021/12/18 05:52:01;;;;;;;0.40;0.30;;;;;;;6.52;100.00;103125.31;5033074;28;20463;-69
2021/12/18 05:54:27;;;;;;;0.40;0.30;;;;;;;6.48;100.00;103124.09;5033099;28;20439;-70
2021/12/18 05:56:53;;;;;;;0.40;0.30;;;;;;;6.50;100.00;103116.59;5033379;28;20454;-71
2021/12/18 05:59:20;;;;;;;0.40;0.30;;;;;;;6.49;100.00;103117.66;5033351;28;20439;-71
2021/12/18 06:01:48;;;;;;;0.40;0.30;;;;;;;6.41;100.00;103117.88;5033338;28;20465;-71
2021/12/18 06:04:15;;;;;;;0.40;0.30;;;;;;;6.41;100.00;103117.88;5033266;28;20490;-71
2021/12/18 06:06:41;;;;;;;0.40;0.20;;;;;;;6.45;100.00;103119.13;5033230;28;20509;-71
2021/12/18 06:09:10;;;;;;;0.40;0.23;;;;;;;6.47;100.00;103115.19;5032939;28;20937;-71
2021/12/18 06:11:38;;;;;;;0.40;0.30;;;;;;;6.51;100.00;103119.13;5033106;28;20535;-71
2021/12/18 06:14:05;;;;;;;0.40;0.30;;;;;;;6.53;100.00;103111.63;5033152;28;20440;-71
2021/12/18 06:16:32;;;;;;;0.40;0.20;;;;;;;6.54;100.00;103115.16;5033205;28;20443;-71
2021/12/18 06:19:00;;;;;;;0.40;0.20;;;;;;;6.53;100.00;103108.13;5035947;28;20854;-71
2021/12/18 06:21:26;;;;;;;0.40;0.30;;;;;;;6.50;100.00;103103.16;5037563;28;20466;-70
2021/12/18 06:23:55;;;;;;;0.40;0.20;;;;;;;6.49;100.00;103098.81;5037099;28;20494;-70
2021/12/18 06:26:23;;;;;;;0.40;0.20;;;;;;;6.44;100.00;103096.75;5037185;28;20443;-69
2021/12/18 06:28:50;;;;;;;0.40;0.30;;;;;;;6.46;100.00;103096.53;5036884;28;20820;-71
2021/12/18 06:31:16;;;;;;;0.40;0.20;;;;;;;6.43;100.00;103096.97;5037269;28;20443;-70
2021/12/18 06:33:43;;;;;;;0.40;0.30;;;;;;;6.42;100.00;103089.91;5037044;28;20831;-69
2021/12/18 06:36:10;;;;;;;0.40;0.30;;;;;;;6.37;100.00;103089.72;5037042;28;20443;-69
2021/12/18 06:38:37;;;;;;;0.40;0.30;;;;;;;6.36;100.00;103091.59;5037009;28;20493;-69
2021/12/18 06:41:03;;;;;;;0.40;0.30;;;;;;;6.40;100.00;103087.44;5036779;28;20501;-71
2021/12/18 06:43:30;;;;;;;0.40;0.23;;;;;;;6.39;100.00;103082.28;5037788;28;20494;-68
2021/12/18 06:45:56;;;;;;;0.40;0.30;;;;;;;6.39;100.00;103082.28;5036583;28;20944;-68
2021/12/18 06:48:23;;;;;;;0.40;0.30;;;;;;;6.40;100.00;103083.94;5036806;28;20497;-68
2021/12/18 06:50:50;;;;;;;0.40;0.30;;;;;;;6.39;100.00;103083.09;5036738;28;20439;-67
2021/12/18 06:53:18;;;;;;;0.40;0.20;;;;;;;6.37;100.00;103089.72;5036342;28;20998;-67
2021/12/18 06:55:45;;;;;;;0.40;0.30;;;;;;;6.33;100.00;103089.34;5036329;28;20525;-67
2021/12/18 06:58:11;;;;;;;0.40;0.27;;;;;;;6.31;100.00;103077.94;5036357;28;20940;-68
2021/12/18 07:00:38;;;;;;;0.40;0.20;;;;;;;6.34;100.00;103084.78;5036586;28;20455;-67
2021/12/18 07:03:04;;;;;;;0.40;0.20;;;;;;;6.40;100.00;103075.84;5036336;28;20463;-68
2021/12/18 07:05:31;;;;;;;0.40;0.30;;;;;;;6.43;100.00;103075.44;5036491;28;20447;-67
2021/12/18 07:07:57;;;;;;;0.40;0.20;;;;;;;6.46;100.00;103077.69;5036415;28;20434;-68
2021/12/18 07:10:25;;;;;;;0.40;0.20;;;;;;;6.49;100.00;103079.97;5036436;28;20451;-67
2021/12/18 07:12:52;;;;;;;0.40;0.30;;;;;;;6.47;100.00;103079.38;5036284;28;20876;-67
2021/12/18 07:15:18;;;;;;;0.40;0.20;;;;;;;6.41;100.00;103080.19;5036295;28;20451;-68
2021/12/18 07:17:44;;;;;;;0.40;0.30;;;;;;;6.42;100.00;103071.91;5035963;28;20447;-69
2021/12/18 07:20:12;;;;;;;0.40;0.30;;;;;;;6.45;100.00;103076.03;5036229;28;20443;-69
2021/12/18 07:22:39;;;;;;;0.40;0.30;;;;;;;6.39;100.00;103068.81;5036078;28;20471;-70
2021/12/18 07:25:06;;;;;;;0.40;0.23;;;;;;;6.38;100.00;103069.88;5036030;28;20494;-69
2021/12/18 07:27:34;;;;;;;0.40;0.30;;;;;;;6.39;100.00;103066.13;5036062;28;20439;-69
2021/12/18 07:30:00;;;;;;;0.40;0.20;;;;;;;6.33;100.00;103067.81;5034847;28;20443;-69
2021/12/18 07:32:28;;;;;;;0.40;0.30;;;;;;;6.31;100.00;103068.00;5035941;28;20490;-69
2021/12/18 07:34:56;;;;;;;0.40;0.30;;;;;;;6.25;100.00;103060.78;5035929;28;20447;-69
2021/12/18 07:37:24;;;;;;;0.40;0.30;;;;;;;6.20;100.00;103067.84;5035998;28;20451;-70
2021/12/18 07:39:50;;;;;;;0.40;0.30;;;;;;;6.17;100.00;103063.69;5035662;28;20959;-71
2021/12/18 07:42:17;;;;;;;0.40;0.30;;;;;;;6.21;100.00;103062.25;5035553;28;20471;-71
2021/12/18 07:44:44;;;;;;;0.40;0.30;;;;;;;6.25;100.00;103057.25;5035701;28;20513;-71
2021/12/18 07:47:11;;;;;;;0.40;0.30;;;;;;;6.25;100.00;103054.56;5035702;28;20451;-71
2021/12/18 07:49:37;;;;;;;0.40;0.30;;;;;;;6.26;100.00;103053.53;5035685;28;20850;-72
2021/12/18 07:52:04;;;;;;;0.40;0.30;;;;;;;6.28;100.00;103057.66;5035522;28;20467;-71
2021/12/18 07:54:31;;;;;;;1.27;1.17;;;;;;;6.31;100.00;103059.09;5035594;28;20497;-69
2021/12/18 07:56:58;;;;;;;0.40;0.30;;;;;;;6.22;100.00;103047.72;5035188;28;20945;-68
2021/12/18 07:59:25;;;;;;;0.40;0.30;;;;;;;6.18;100.00;103046.50;5035525;28;20439;-68
2021/12/18 08:01:53;;;;;;;0.40;0.30;;;;;;;6.16;100.00;103043.22;5035106;28;21042;-68
2021/12/18 08:04:19;;;;;;;0.40;0.30;;;;;;;6.18;100.00;103041.13;5035334;28;20552;-68
2021/12/18 08:06:45;;;;;;;0.40;0.30;;;;;;;6.17;100.00;103047.53;5035401;28;20447;-68
2021/12/18 08:09:12;;;;;;;0.40;0.30;;;;;;;6.15;100.00;103038.84;5035319;28;20501;-68
2021/12/18 08:11:38;;;;;;;0.40;0.30;;;;;;;6.10;100.00;103041.34;5034778;28;20454;-68
2021/12/18 08:14:05;;;;;;;0.40;0.30;;;;;;;6.02;100.00;103028.97;5035196;28;20451;-67
2021/12/18 08:16:31;;;;;;;0.40;0.20;;;;;;;6.02;100.00;103028.97;5035200;28;20447;-67
2021/12/18 08:18:59;;;;;;;0.40;0.20;;;;;;;6.08;100.00;103038.03;5035113;28;20786;-68
2021/12/18 08:21:25;;;;;;;0.40;0.20;;;;;;;6.03;100.00;103033.28;5035136;28;20447;-68
2021/12/18 08:23:52;;;;;;;0.40;0.30;;;;;;;6.06;100.00;103030.19;5034934;28;20494;-70
2021/12/18 08:26:18;;;;;;;0.40;0.30;;;;;;;6.07;100.00;103031.03;5035034;28;20813;-70
2021/12/18 08:28:45;;;;;;;0.40;0.20;;;;;;;6.07;100.00;103028.31;5034840;28;20446;-69
2021/12/18 08:31:11;;;;;;;0.40;0.30;;;;;;;6.07;100.00;103025.63;5034937;28;20501;-69
2021/12/18 08:33:38;;;;;;;0.40;0.30;;;;;;;6.11;100.00;103021.50;5034787;28;20459;-69
2021/12/18 08:36:06;;;;;;;0.40;0.20;;;;;;;6.14;100.00;103020.22;5034802;28;20439;-66
2021/12/18 08:38:32;;;;;;;0.40;0.30;;;;;;;6.13;100.00;103022.09;5034831;28;20473;-66
2021/12/18 08:40:59;;;;;;;0.40;0.30;;;;;;;6.13;100.00;103019.41;5034576;28;20446;-67
2021/12/18 08:43:25;;;;;;;0.40;0.27;;;;;;;6.18;100.00;103027.66;5034210;28;20510;-66
2021/12/18 08:45:52;;;;;;;0.40;0.30;;;;;;;6.19;100.00;103023.94;5034340;28;20824;-67
2021/12/18 08:48:18;;;;;;;1.13;1.03;;;;;;;6.24;100.00;103024.16;5034617;28;20443;-68
2021/12/18 08:50:45;;;;;;;0.40;0.30;;;;;;;6.23;100.00;103019.78;5034760;28;20826;-69
2021/12/18 08:53:13;;;;;;;0.40;0.30;;;;;;;6.26;100.00;103024.75;5034374;28;20459;-69
2021/12/18 08:55:39;;;;;;;0.40;0.20;;;;;;;6.24;100.00;103017.91;5034397;28;20439;-69
2021/12/18 08:58:06;;;;;;;0.40;0.20;;;;;;;6.24;100.00;103013.38;5034324;28;20446;-69
2021/12/18 09:00:33;;;;;;;0.40;0.23;;;;;;;6.30;100.00;103020.59;5034347;28;20859;-69
2021/12/18 09:03:00;;;;;;;0.40;0.30;;;;;;;6.43;100.00;103018.91;5034176;28;20640;-68
2021/12/18 09:05:28;;;;;;;0.40;0.20;;;;;;;6.43;100.00;103018.91;5034137;28;20483;-68
2021/12/18 09:07:56;;;;;;;0.40;0.20;;;;;;;6.48;100.00;103021.78;5034153;28;20454;-69
2021/12/18 09:10:25;;;;;;;0.40;0.30;;;;;;;6.52;100.00;103012.25;5033881;28;20505;-67
2021/12/18 09:12:52;;;;;;;0.40;0.30;;;;;;;6.55;100.00;103011.78;5034030;28;20463;-69
2021/12/18 09:15:18;;;;;;;0.40;0.30;;;;;;;6.60;100.00;103020.09;5034085;28;20936;-68
2021/12/18 09:17:45;;;;;;;0.40;0.20;;;;;;;6.55;100.00;103018.03;5034013;28;20866;-71
2021/12/18 09:20:13;;;;;;;0.40;0.20;;;;;;;6.65;100.00;103027.50;5033891;28;20439;-71
2021/12/18 09:22:40;;;;;;;0.40;0.27;;;;;;;6.67;100.00;103012.78;5033843;28;20467;-69
2021/12/18 09:25:07;;;;;;;0.40;0.30;;;;;;;6.74;100.00;103018.16;5033794;28;20487;-68
2021/12/18 09:27:36;;;;;;;0.40;0.30;;;;;;;6.71;100.00;103014.00;5033555;28;20446;-69
2021/12/18 09:30:03;;;;;;;0.40;0.30;;;;;;;6.70;100.00;103015.06;5033799;28;20796;-68
2021/12/18 09:32:30;;;;;;;0.40;0.20;;;;;;;6.69;100.00;103015.28;5033665;28;20459;-68
2021/12/18 09:34:57;;;;;;;0.40;0.20;;;;;;;6.70;100.00;103006.16;5033465;28;20953;-71
2021/12/18 09:37:23;;;;;;;0.40;0.30;;;;;;;6.66;100.00;102996.84;5033772;28;20439;-68
2021/12/18 09:39:50;;;;;;;0.40;0.30;;;;;;;6.66;100.00;103011.13;5033636;28;20816;-68
2021/12/18 09:42:16;;;;;;;0.40;0.30;;;;;;;6.65;100.00;103003.28;5033265;28;20479;-68
2021/12/18 09:44:50;;;;;;;0.40;0.30;;;;;;;6.65;100.00;103001.41;5033501;28;20486;-68
2021/12/18 09:47:16;;;;;;;0.40;0.30;;;;;;;6.66;100.00;103005.75;5033214;28;20849;-69
2021/12/18 09:49:44;;;;;;;0.40;0.30;;;;;;;6.66;100.00;102999.53;5033535;28;20447;-69
2021/12/18 09:52:11;;;;;;;0.40;0.30;;;;;;;6.66;100.00;103000.34;5032954;28;20903;-69
2021/12/18 09:54:37;;;;;;;0.40;0.30;;;;;;;6.71;100.00;103002.41;5033297;28;20435;-69
2021/12/18 09:57:04;;;;;;;0.40;0.20;;;;;;;6.72;100.00;102991.41;5033363;28;20471;-69
2021/12/18 09:59:31;;;;;;;0.40;0.30;;;;;;;6.73;100.00;102995.78;5033064;28;20439;-69
2021/12/18 10:01:58;;;;;;;0.40;0.30;;;;;;;6.79;100.00;102978.75;5032930;28;20981;-69
2021/12/18 10:04:29;;;;;;;0.40;0.30;;;;;;;6.76;100.00;102981.84;5033251;28;20506;-69
2021/12/18 10:06:58;;;;;;;0.40;0.20;;;;;;;6.77;100.00;102967.38;5033245;28;20466;-69
2021/12/18 10:09:36;;;;;;;0.40;0.30;;;;;;;6.79;100.00;102976.03;5033276;28;20505;-69
2021/12/18 10:12:12;;;;;;;0.40;0.20;;;;;;;6.83;100.00;102977.28;5032870;28;20976;-69
2021/12/18 10:14:40;;;;;;;0.40;0.20;;;;;;;6.86;100.00;102973.31;5033303;28;20423;-69
2021/12/18 10:17:30;;;;;;;0.40;0.30;;;;;;;6.88;100.00;102970.41;5033167;28;20450;-69
2021/12/18 10:20:16;;;;;;;0.40;0.30;;;;;;;6.92;100.00;102966.25;5033220;28;20446;-69
2021/12/18 10:22:46;;;;;;;0.40;0.30;;;;;;;6.96;100.00;102956.69;5033130;28;20478;-70
2021/12/18 10:25:14;;;;;;;0.40;0.30;;;;;;;6.96;100.00;102949.41;5033039;28;20479;-69
2021/12/18 10:27:43;;;;;;;0.40;0.30;;;;;;;6.92;100.00;102958.16;5032801;28;20944;-69
2021/12/18 10:30:15;;;;;;;0.40;0.30;;;;;;;6.93;100.00;102951.72;5033014;28;20545;-69
2021/12/18 10:32:54;;;;;;;0.40;0.30;;;;;;;6.97;100.00;102945.69;5033004;28;20587;-69
2021/12/18 10:35:21;;;;;;;0.40;0.30;;;;;;;6.95;100.00;102949.63;5033079;28;20430;-70
2021/12/18 10:37:47;;;;;;;0.40;0.30;;;;;;;6.97;100.00;102944.84;5032717;28;20477;-69
2021/12/18 10:40:14;;;;;;;0.40;0.20;;;;;;;6.97;100.00;102942.97;5033018;28;20445;-69
2021/12/18 10:42:43;;;;;;;0.40;0.30;;;;;;;7.00;100.00;102936.34;5032584;28;20476;-69
2021/12/18 10:45:15;;;;;;;0.40;0.30;;;;;;;7.01;100.00;102940.69;5032861;28;20515;-71
2021/12/18 10:47:53;;;;;;;0.40;0.30;;;;;;;7.00;100.00;102929.09;5032947;28;20424;-69
2021/12/18 10:50:24;;;;;;;0.40;0.30;;;;;;;6.99;100.00;102926.59;5032935;28;20442;-69
2021/12/18 10:53:01;;;;;;;0.40;0.30;;;;;;;7.04;100.00;102918.69;5032852;28;20471;-70
2021/12/18 10:55:34;;;;;;;0.40;0.30;;;;;;;7.07;100.00;102910.16;5032899;28;20839;-69
2021/12/18 10:58:02;;;;;;;0.40;0.30;;;;;;;7.07;100.00;102913.66;5032675;28;20798;-69
2021/12/18 11:00:34;;;;;;;0.40;0.30;;;;;;;7.08;100.00;102914.50;5032039;28;20483;-69
2021/12/18 11:03:13;;;;;;;0.40;0.23;;;;;;;7.12;100.00;102901.41;5032675;28;20463;-69
2021/12/18 11:05:40;;;;;;;0.40;0.30;;;;;;;7.16;100.00;102900.75;5036144;28;20467;-69
2021/12/18 11:08:13;;;;;;;0.40;0.23;;;;;;;7.12;100.00;102899.53;5036440;28;20451;-69
2021/12/18 11:10:42;;;;;;;0.40;0.30;;;;;;;7.13;100.00;102887.72;5036391;28;20810;-70
2021/12/18 11:15:54;;;;;;;0.40;0.30;;;;;;;7.14;100.00;102892.06;5036027;28;20526;-70
2021/12/18 11:18:22;;;;;;;0.40;0.30;;;;;;;7.11;100.00;102887.09;5035925;28;20450;-69
2021/12/18 11:20:50;;;;;;;0.40;0.30;;;;;;;7.10;100.00;102890.03;5036033;28;20446;-69
2021/12/18 11:23:21;;;;;;;0.60;0.60;;;;;;;7.11;100.00;102881.72;5035760;28;20984;-69
2021/12/18 11:25:49;;;;;;;0.40;0.30;;;;;;;7.12;100.00;102877.16;5036076;28;20471;-69
2021/12/18 11:28:17;;;;;;;0.40;0.30;;;;;;;7.11;100.00;102870.13;5035855;28;20486;-69
2021/12/18 11:30:43;;;;;;;0.40;0.30;;;;;;;7.10;100.00;102871.16;5035997;28;20443;-68
2021/12/18 11:33:10;;;;;;;0.40;0.30;;;;;;;7.12;100.00;102871.75;5035889;28;20467;-69
2021/12/18 11:35:40;;;;;;;0.40;0.27;;;;;;;7.14;100.00;102864.28;5035939;28;20439;-67
2021/12/18 11:38:08;;;;;;;0.40;0.30;;;;;;;7.10;100.00;102858.53;5035695;28;20439;-67
2021/12/18 11:40:37;;;;;;;0.40;0.30;;;;;;;7.17;100.00;102855.75;5035770;28;20479;-67
2021/12/18 11:43:07;;;;;;;1.23;1.13;;;;;;;7.19;100.00;102846.41;5035353;28;21055;-67
2021/12/18 11:45:36;;;;;;;0.40;0.30;;;;;;;7.23;100.00;102839.53;5035403;28;20905;-67
2021/12/18 11:48:04;;;;;;;0.40;0.30;;;;;;;7.24;100.00;102846.56;5035652;28;20447;-67
2021/12/18 11:50:33;;;;;;;0.40;0.20;;;;;;;7.30;100.00;102840.28;5035665;28;20443;-67
2021/12/18 11:53:05;;;;;;;0.40;0.20;;;;;;;7.30;100.00;102839.44;5035562;28;20468;-68
2021/12/18 11:55:33;;;;;;;0.40;0.30;;;;;;;7.25;100.00;102840.13;5035281;28;20778;-69
2021/12/18 11:58:02;;;;;;;0.40;0.30;;;;;;;7.31;100.00;102841.94;5035501;28;20782;-69
2021/12/18 12:00:38;;;;;;;0.40;0.23;;;;;;;7.36;100.00;102835.06;5035205;28;20451;-70
2021/12/18 12:03:07;;;;;;;0.40;0.30;;;;;;;7.42;100.00;102834.97;5035397;28;20474;-69